createdAt,value
2018-09-25T00:01:48.311Z,74.58
2018-09-25T00:04:21.555Z,75.04
2018-09-25T00:06:54.974Z,75.29
2018-09-25T00:09:28.292Z,75.12
2018-09-25T00:12:01.686Z,75.29
2018-09-25T00:14:35.096Z,75.40
2018-09-25T00:17:08.497Z,75.74
2018-09-25T00:19:41.885Z,75.97
2018-09-25T00:22:16.335Z,75.97
2018-09-25T00:24:49.741Z,75.59
2018-09-25T00:27:23.015Z,75.44
2018-09-25T00:29:56.272Z,75.31
2018-09-25T00:32:47.429Z,75.14
2018-09-25T00:35:20.713Z,75.06
2018-09-25T00:37:54.136Z,75.39
2018-09-25T00:40:27.544Z,75.29
2018-09-25T00:43:00.935Z,75.16
2018-09-25T00:45:34.204Z,74.85
2018-09-25T00:48:07.450Z,74.95
2018-09-25T00:50:40.739Z,75.08
2018-09-25T00:53:14.105Z,75.06
2018-09-25T00:55:47.853Z,75.51
2018-09-25T00:58:21.292Z,75.25
2018-09-25T01:00:54.651Z,75.59
2018-09-25T01:03:28.552Z,75.45
2018-09-25T01:06:01.836Z,75.15
2018-09-25T01:08:35.328Z,74.62
2018-09-25T01:11:08.572Z,75.13
2018-09-25T01:13:41.967Z,74.73
2018-09-25T01:16:15.351Z,74.29
2018-09-25T01:18:49.473Z,74.79
2018-09-25T01:21:22.717Z,74.56
2018-09-25T01:23:56.131Z,74.71
2018-09-25T01:26:29.667Z,74.08
2018-09-25T01:29:03.072Z,74.50
2018-09-25T01:31:36.523Z,74.78
2018-09-25T01:34:10.128Z,74.81
2018-09-25T01:36:43.446Z,75.39
2018-09-25T01:39:16.835Z,75.39
2018-09-25T01:41:50.396Z,75.94
2018-09-25T01:44:24.466Z,75.75
2018-09-25T01:46:57.791Z,75.25
2018-09-25T01:49:31.104Z,75.16
2018-09-25T01:52:04.684Z,74.52
2018-09-25T01:54:38.088Z,75.22
2018-09-25T01:57:11.883Z,74.58
2018-09-25T01:59:45.148Z,74.93
2018-09-25T02:02:18.424Z,74.91
2018-09-25T02:04:51.828Z,75.23
2018-09-25T02:07:25.675Z,75.06
2018-09-25T02:09:59.115Z,74.87
2018-09-25T02:12:32.387Z,74.62
2018-09-25T02:15:06.276Z,75.19
2018-09-25T02:17:39.595Z,75.54
2018-09-25T02:20:12.969Z,75.35
2018-09-25T02:22:46.248Z,75.37
2018-09-25T02:25:19.691Z,75.59
2018-09-25T02:27:53.078Z,75.78
2018-09-25T02:30:27.467Z,75.60
2018-09-25T02:33:00.911Z,75.59
2018-09-25T02:35:34.415Z,75.81
2018-09-25T02:38:07.881Z,75.63
2018-09-25T02:40:41.417Z,75.46
2018-09-25T02:46:02.907Z,75.14
2018-09-25T02:48:36.204Z,75.46
2018-09-25T02:51:10.436Z,75.46
2018-09-25T02:53:43.732Z,75.48
2018-09-25T02:56:17.116Z,75.22
2018-09-25T02:58:50.887Z,74.96
2018-09-25T03:01:24.152Z,75.50
2018-09-25T03:03:57.698Z,75.26
2018-09-25T03:06:31.118Z,75.33
2018-09-25T03:09:04.462Z,74.92
2018-09-25T03:11:38.040Z,75.44
2018-09-25T03:14:11.596Z,75.54
2018-09-25T03:16:44.908Z,75.32
2018-09-25T03:19:18.631Z,74.78
2018-09-25T03:21:51.916Z,74.58
2018-09-25T03:24:25.212Z,74.74
2018-09-25T03:26:58.648Z,74.75
2018-09-25T03:29:32.095Z,74.76
2018-09-25T03:32:05.521Z,74.87
2018-09-25T03:34:38.839Z,74.85
2018-09-25T03:37:12.160Z,74.33
2018-09-25T03:39:45.473Z,74.78
2018-09-25T03:42:18.834Z,74.79
2018-09-25T03:44:52.175Z,74.29
2018-09-25T03:47:25.508Z,74.37
2018-09-25T03:49:59.008Z,74.00
2018-09-25T03:52:32.353Z,74.02
2018-09-25T03:55:06.104Z,73.77
2018-09-25T03:57:39.555Z,73.98
2018-09-25T04:00:13.292Z,74.40
2018-09-25T04:02:46.584Z,73.99
2018-09-25T04:05:19.911Z,74.31
2018-09-25T04:07:53.193Z,74.23
2018-09-25T04:10:26.488Z,74.09
2018-09-25T04:12:59.760Z,74.53
2018-09-25T04:15:33.129Z,74.39
2018-09-25T04:18:06.499Z,74.18
2018-09-25T04:20:40.079Z,73.85
2018-09-25T04:23:13.520Z,73.87
2018-09-25T04:25:47.612Z,73.89
2018-09-25T04:28:21.013Z,74.07
2018-09-25T04:30:54.660Z,74.01
2018-09-25T04:33:28.069Z,74.02
2018-09-25T04:36:01.484Z,73.73
2018-09-25T04:38:35.048Z,73.81
2018-09-25T04:41:08.403Z,74.16
2018-09-25T04:43:41.809Z,73.68
2018-09-25T04:46:15.643Z,73.73
2018-09-25T04:48:48.972Z,73.55
2018-09-25T04:51:22.419Z,73.42
2018-09-25T04:53:55.854Z,73.57
2018-09-25T04:56:29.313Z,73.56
2018-09-25T04:59:02.727Z,73.58
2018-09-25T05:01:36.060Z,73.60
2018-09-25T05:04:11.015Z,73.63
2018-09-25T05:06:44.836Z,73.63
2018-09-25T05:09:18.024Z,73.57
2018-09-25T05:11:51.647Z,73.80
2018-09-25T05:14:25.072Z,73.37
2018-09-25T05:16:58.558Z,73.71
2018-09-25T05:19:32.023Z,73.95
2018-09-25T05:22:05.740Z,73.82
2018-09-25T05:24:39.046Z,73.76
2018-09-25T05:27:12.708Z,74.17
2018-09-25T05:29:46.163Z,73.81
2018-09-25T05:32:19.461Z,73.70
2018-09-25T05:34:52.871Z,73.66
2018-09-25T05:37:26.292Z,74.10
2018-09-25T05:39:59.611Z,74.51
2018-09-25T05:42:32.875Z,74.36
2018-09-25T05:45:06.318Z,74.28
2018-09-25T05:47:39.876Z,74.33
2018-09-25T05:50:13.300Z,74.49
2018-09-25T05:52:47.103Z,74.70
2018-09-25T05:55:20.512Z,74.79
2018-09-25T05:57:54.299Z,74.48
2018-09-25T06:00:27.553Z,74.41
2018-09-25T06:03:00.850Z,74.59
2018-09-25T06:05:34.252Z,74.81
2018-09-25T06:08:07.751Z,74.54
2018-09-25T06:10:41.384Z,74.45
2018-09-25T06:13:14.803Z,74.82
2018-09-25T06:15:48.597Z,75.08
2018-09-25T06:18:22.096Z,75.25
2018-09-25T06:20:55.407Z,74.98
2018-09-25T06:23:28.819Z,75.43
2018-09-25T06:26:02.223Z,75.24
2018-09-25T06:28:35.562Z,75.47
2018-09-25T06:31:09.004Z,75.51
2018-09-25T06:33:42.557Z,75.65
2018-09-25T06:36:15.956Z,75.96
2018-09-25T06:38:49.404Z,75.74
2018-09-25T06:41:22.765Z,76.20
2018-09-25T06:43:56.220Z,76.92
2018-09-25T06:46:29.605Z,77.17
2018-09-25T06:49:02.902Z,76.85
2018-09-25T06:51:36.211Z,76.84
2018-09-25T06:54:10.344Z,76.71
2018-09-25T06:56:43.748Z,77.22
2018-09-25T06:59:17.239Z,77.11
2018-09-25T07:01:50.530Z,77.92
2018-09-25T07:04:24.017Z,78.29
2018-09-25T07:06:57.391Z,78.63
2018-09-25T07:09:30.826Z,78.47
2018-09-25T07:12:04.219Z,78.50
2018-09-25T07:14:37.637Z,78.43
2018-09-25T07:17:11.132Z,78.36
2018-09-25T07:19:44.580Z,78.29
2018-09-25T07:22:18.448Z,78.50
2018-09-25T07:24:51.780Z,78.62
2018-09-25T07:27:25.151Z,78.95
2018-09-25T07:29:58.520Z,78.83
2018-09-25T07:32:38.780Z,79.43
2018-09-25T07:35:12.184Z,79.29
2018-09-25T07:37:45.685Z,78.65
2018-09-25T07:40:18.956Z,79.14
2018-09-25T07:42:52.472Z,79.75
2018-09-25T07:45:25.868Z,79.61
2018-09-25T07:47:59.317Z,79.42
2018-09-25T07:50:32.738Z,79.48
2018-09-25T07:53:06.215Z,79.50
2018-09-25T07:55:39.528Z,79.43
2018-09-25T07:58:12.891Z,79.89
2018-09-25T08:00:46.351Z,79.85
2018-09-25T08:03:19.665Z,79.42
2018-09-25T08:05:53.561Z,79.75
2018-09-25T08:08:26.788Z,79.59
2018-09-25T08:11:00.368Z,79.76
2018-09-25T08:13:33.807Z,79.50
2018-09-25T08:16:07.115Z,78.55
2018-09-25T08:18:40.388Z,78.83
2018-09-25T08:21:13.808Z,78.56
2018-09-25T08:23:47.095Z,77.87
2018-09-25T08:26:20.369Z,77.40
2018-09-25T08:28:53.736Z,77.59
2018-09-25T08:31:26.999Z,77.01
2018-09-25T08:34:00.291Z,76.76
2018-09-25T08:36:33.528Z,76.48
2018-09-25T08:39:07.178Z,76.80
2018-09-25T08:41:40.425Z,76.41
2018-09-25T08:47:50.108Z,75.29
2018-09-25T08:50:23.883Z,75.50
2018-09-25T08:52:57.307Z,74.26
2018-09-25T08:55:30.699Z,74.47
2018-09-25T08:58:04.679Z,74.26
2018-09-25T09:00:37.959Z,73.33
2018-09-25T09:03:11.432Z,73.21
2018-09-25T09:05:44.942Z,72.91
2018-09-25T09:08:18.798Z,72.27
2018-09-25T09:10:52.176Z,70.73
2018-09-25T09:13:25.500Z,69.63
2018-09-25T09:15:58.839Z,69.39
2018-09-25T09:18:32.561Z,69.09
2018-09-25T09:21:06.020Z,67.30
2018-09-25T09:23:39.460Z,66.80
2018-09-25T09:26:12.706Z,65.44
2018-09-25T09:28:46.179Z,64.20
2018-09-25T09:31:19.688Z,62.15
2018-09-25T09:33:53.172Z,61.00
2018-09-25T09:36:26.600Z,61.15
2018-09-25T09:39:00.448Z,61.97
2018-09-25T09:41:33.707Z,58.92
2018-09-25T09:44:06.983Z,59.50
2018-09-25T09:46:40.363Z,57.82
2018-09-25T09:49:13.659Z,58.11
2018-09-25T09:51:46.986Z,57.48
2018-09-25T09:54:20.643Z,56.32
2018-09-25T09:56:54.059Z,56.74
2018-09-25T09:59:27.390Z,56.41
2018-09-25T10:02:00.855Z,55.40
2018-09-25T10:04:34.420Z,54.40
2018-09-25T10:07:07.811Z,53.81
2018-09-25T10:09:41.316Z,53.61
2018-09-25T10:12:14.916Z,52.47
2018-09-25T10:14:48.239Z,53.10
2018-09-25T10:17:21.523Z,53.97
2018-09-25T10:19:54.896Z,53.90
2018-09-25T10:22:28.327Z,53.87
2018-09-25T10:25:01.877Z,52.89
2018-09-25T10:27:35.291Z,51.46
2018-09-25T10:30:08.788Z,53.04
2018-09-25T10:32:42.173Z,52.85
2018-09-25T10:35:15.472Z,52.70
2018-09-25T10:37:48.759Z,53.65
2018-09-25T10:40:22.544Z,53.57
2018-09-25T10:42:55.873Z,54.04
2018-09-25T10:45:29.295Z,53.95
2018-09-25T10:48:02.723Z,53.16
2018-09-25T10:50:36.185Z,52.16
2018-09-25T10:53:10.243Z,51.17
2018-09-25T10:55:43.561Z,50.25
2018-09-25T10:58:16.828Z,51.11
2018-09-25T11:00:50.296Z,51.04
2018-09-25T11:03:23.796Z,50.71
2018-09-25T11:05:57.198Z,51.11
2018-09-25T11:08:30.607Z,50.90
2018-09-25T11:11:03.899Z,49.51
2018-09-25T11:13:37.568Z,48.00
2018-09-25T11:16:11.843Z,47.82
2018-09-25T11:18:45.199Z,48.58
2018-09-25T11:21:18.732Z,49.86
2018-09-25T11:23:52.243Z,50.51
2018-09-25T11:26:25.595Z,49.16
2018-09-25T11:28:59.116Z,49.67
2018-09-25T11:31:32.423Z,49.42
2018-09-25T11:34:05.721Z,48.98
2018-09-25T11:36:39.038Z,47.49
2018-09-25T11:39:13.298Z,48.09
2018-09-25T11:41:47.139Z,46.36
2018-09-25T11:44:20.388Z,46.79
2018-09-25T11:46:54.035Z,46.58
2018-09-25T11:49:27.420Z,46.76
2018-09-25T11:52:00.880Z,46.92
2018-09-25T11:54:34.315Z,44.89
2018-09-25T11:57:07.786Z,44.35
2018-09-25T11:59:41.076Z,44.61
2018-09-25T12:02:14.570Z,44.79
2018-09-25T12:04:48.296Z,45.43
2018-09-25T12:07:21.843Z,44.39
2018-09-25T12:09:55.800Z,44.77
2018-09-25T12:12:29.080Z,44.86
2018-09-25T12:15:02.321Z,44.67
2018-09-25T12:17:35.773Z,45.48
2018-09-25T12:20:08.968Z,47.09
2018-09-25T12:22:42.393Z,46.30
2018-09-25T12:25:15.607Z,46.85
2018-09-25T12:27:49.028Z,45.54
2018-09-25T12:30:22.460Z,46.83
2018-09-25T12:32:55.920Z,46.94
2018-09-25T12:35:29.208Z,47.16
2018-09-25T12:38:02.603Z,47.54
2018-09-25T12:40:36.052Z,47.47
2018-09-25T12:43:09.497Z,48.08
2018-09-25T12:45:42.755Z,46.87
2018-09-25T12:48:16.068Z,48.06
2018-09-25T12:50:49.443Z,47.70
2018-09-25T12:53:22.756Z,48.03
2018-09-25T12:55:56.171Z,48.16
2018-09-25T12:58:29.582Z,47.27
2018-09-25T13:01:03.079Z,47.18
2018-09-25T13:03:36.442Z,47.64
2018-09-25T13:06:11.340Z,48.03
2018-09-25T13:08:44.753Z,46.84
2018-09-25T13:11:18.103Z,46.40
2018-09-25T13:13:51.676Z,46.69
2018-09-25T13:16:24.985Z,46.92
2018-09-25T13:18:58.220Z,46.39
2018-09-25T13:24:36.007Z,45.58
2018-09-25T13:27:10.204Z,44.18
2018-09-25T13:29:43.840Z,45.21
2018-09-25T13:32:17.352Z,44.23
2018-09-25T13:34:51.032Z,44.97
2018-09-25T13:37:24.327Z,44.82
2018-09-25T13:39:57.792Z,44.53
2018-09-25T13:42:31.172Z,43.27
2018-09-25T13:47:49.983Z,42.68
2018-09-25T13:50:23.308Z,43.04
2018-09-25T13:52:56.847Z,43.01
2018-09-25T13:55:30.268Z,43.05
2018-09-25T13:58:03.633Z,42.48
2018-09-25T14:00:37.051Z,41.69
2018-09-25T14:03:10.769Z,43.32
2018-09-25T14:05:44.371Z,44.07
2018-09-25T14:08:17.826Z,43.28
2018-09-25T14:10:51.151Z,43.41
2018-09-25T14:13:27.753Z,42.22
2018-09-25T14:16:01.040Z,42.28
2018-09-25T14:18:34.658Z,43.40
2018-09-25T14:21:08.188Z,43.01
2018-09-25T14:23:41.572Z,42.75
2018-09-25T14:26:14.962Z,43.41
2018-09-25T14:28:58.184Z,43.54
2018-09-25T14:31:31.487Z,43.84
2018-09-25T14:34:04.920Z,42.94
2018-09-25T14:36:38.214Z,43.46
2018-09-25T14:39:13.213Z,44.43
2018-09-25T14:41:46.548Z,43.41
2018-09-25T14:44:19.888Z,44.04
2018-09-25T14:46:53.466Z,43.31
2018-09-25T14:49:26.953Z,43.84
2018-09-25T14:52:00.370Z,43.20
2018-09-25T14:54:33.680Z,42.83
2018-09-25T14:57:07.187Z,42.89
2018-09-25T14:59:40.620Z,42.79
2018-09-25T15:02:13.996Z,43.09
2018-09-25T15:04:47.476Z,43.81
2018-09-25T15:07:20.849Z,44.39
2018-09-25T15:12:32.969Z,44.63
2018-09-25T15:15:06.300Z,44.44
2018-09-25T15:17:39.591Z,43.61
2018-09-25T15:20:12.977Z,42.86
2018-09-25T15:22:46.387Z,42.99
2018-09-25T15:25:19.816Z,42.98
2018-09-25T15:27:53.190Z,41.93
2018-09-25T15:30:26.706Z,42.88
2018-09-25T15:33:00.303Z,43.25
2018-09-25T15:35:33.678Z,43.35
2018-09-25T15:38:07.200Z,43.06
2018-09-25T15:40:40.601Z,43.28
2018-09-25T15:43:14.044Z,44.01
2018-09-25T15:45:47.555Z,44.34
2018-09-25T15:48:21.394Z,44.48
2018-09-25T15:50:55.063Z,43.93
2018-09-25T15:53:28.513Z,43.52
2018-09-25T15:58:41.315Z,44.48
2018-09-25T16:01:14.831Z,44.96
2018-09-25T16:03:48.140Z,44.72
2018-09-25T16:06:21.599Z,45.60
2018-09-25T16:08:55.029Z,45.56
2018-09-25T16:11:28.580Z,44.97
2018-09-25T16:14:01.885Z,45.17
2018-09-25T16:16:35.290Z,44.42
2018-09-25T16:19:08.610Z,45.05
2018-09-25T16:21:42.005Z,44.91
2018-09-25T16:24:15.397Z,43.93
2018-09-25T16:26:48.799Z,43.86
2018-09-25T16:29:22.515Z,45.17
2018-09-25T16:31:55.815Z,43.97
2018-09-25T16:34:29.293Z,43.72
2018-09-25T16:37:02.721Z,44.41
2018-09-25T16:39:36.268Z,44.12
2018-09-25T16:42:10.385Z,44.82
2018-09-25T16:44:44.271Z,45.85
2018-09-25T16:47:17.722Z,45.88
2018-09-25T16:49:51.133Z,47.58
2018-09-25T16:52:24.682Z,48.49
2018-09-25T16:54:58.052Z,48.13
2018-09-25T16:57:32.389Z,49.28
2018-09-25T17:00:05.707Z,49.50
2018-09-25T17:02:39.012Z,50.60
2018-09-25T17:05:12.786Z,50.46
2018-09-25T17:07:46.463Z,50.92
2018-09-25T17:10:21.648Z,51.52
2018-09-25T17:12:55.255Z,51.83
2018-09-25T17:15:28.700Z,51.78
2018-09-25T17:18:02.248Z,51.70
2018-09-25T17:20:35.659Z,52.29
2018-09-25T17:23:09.911Z,52.85
2018-09-25T17:25:43.319Z,52.97
2018-09-25T17:28:16.740Z,54.27
2018-09-25T17:30:50.164Z,53.82
2018-09-25T17:33:23.715Z,54.89
2018-09-25T17:35:56.996Z,55.48
2018-09-25T17:38:30.400Z,55.58
2018-09-25T17:41:03.676Z,55.57
2018-09-25T17:43:37.256Z,56.59
2018-09-25T17:46:10.466Z,56.71
2018-09-25T17:48:43.880Z,57.04
2018-09-25T17:51:17.296Z,57.67
2018-09-25T17:53:50.702Z,58.30
2018-09-25T17:56:24.111Z,58.41
2018-09-25T17:58:57.357Z,59.22
2018-09-25T18:01:31.634Z,58.63
2018-09-25T18:04:05.279Z,58.98
2018-09-25T18:06:38.552Z,59.52
2018-09-25T18:09:13.868Z,59.94
2018-09-25T18:11:47.513Z,60.09
2018-09-25T18:14:20.920Z,60.02
2018-09-25T18:16:54.323Z,60.22
2018-09-25T18:19:27.631Z,60.62
2018-09-25T18:22:01.259Z,61.01
2018-09-25T18:24:34.566Z,61.04
2018-09-25T18:27:07.876Z,61.87
2018-09-25T18:29:41.194Z,61.49
2018-09-25T18:32:14.520Z,61.89
2018-09-25T18:34:47.825Z,62.11
2018-09-25T18:37:21.109Z,62.14
2018-09-25T18:39:54.520Z,62.31
2018-09-25T18:42:27.972Z,63.00
2018-09-25T18:45:01.284Z,63.68
2018-09-25T18:47:34.720Z,63.38
2018-09-25T18:50:08.052Z,63.25
2018-09-25T18:52:41.456Z,63.70
2018-09-25T18:55:14.919Z,64.15
2018-09-25T18:57:48.376Z,64.01
2018-09-25T19:00:21.783Z,64.09
2018-09-25T19:02:55.181Z,64.87
2018-09-25T19:05:28.678Z,64.24
2018-09-25T19:08:01.942Z,64.62
2018-09-25T19:10:35.360Z,64.76
2018-09-25T19:13:10.267Z,65.07
2018-09-25T19:15:43.700Z,64.62
2018-09-25T19:18:16.986Z,64.97
2018-09-25T19:20:50.427Z,65.34
2018-09-25T19:23:23.787Z,65.69
2018-09-25T19:25:57.184Z,65.83
2018-09-25T19:28:30.472Z,66.09
2018-09-25T19:31:03.880Z,65.33
2018-09-25T19:33:37.156Z,66.52
2018-09-25T19:36:11.036Z,65.63
2018-09-25T19:38:44.320Z,66.28
2018-09-25T19:41:17.608Z,65.62
2018-09-25T19:43:51.055Z,65.80
2018-09-25T19:46:25.458Z,65.40
2018-09-25T19:48:58.736Z,65.99
2018-09-25T19:51:32.103Z,65.78
2018-09-25T19:54:05.516Z,65.80
2018-09-25T19:56:39.104Z,66.04
2018-09-25T19:59:13.032Z,65.71
2018-09-25T20:01:46.324Z,66.58
2018-09-25T20:04:19.624Z,66.75
2018-09-25T20:06:53.032Z,66.07
2018-09-25T20:09:26.484Z,66.42
2018-09-25T20:12:00.146Z,66.62
2018-09-25T20:14:33.418Z,67.33
2018-09-25T20:17:06.656Z,67.23
2018-09-25T20:19:39.960Z,67.32
2018-09-25T20:22:13.256Z,66.99
2018-09-25T20:24:46.656Z,67.01
2018-09-25T20:27:20.056Z,67.42
2018-09-25T20:29:53.361Z,67.54
2018-09-25T20:32:26.826Z,67.43
2018-09-25T20:35:00.888Z,67.57
2018-09-25T20:37:34.185Z,67.72
2018-09-25T20:40:07.423Z,68.15
2018-09-25T20:42:41.655Z,67.33
2018-09-25T20:45:16.496Z,67.69
2018-09-25T20:47:50.925Z,68.21
2018-09-25T20:50:24.201Z,68.22
2018-09-25T20:52:57.768Z,67.72
2018-09-25T20:55:31.116Z,68.06
2018-09-25T20:58:04.624Z,68.48
2018-09-25T21:00:38.035Z,68.32
2018-09-25T21:03:11.475Z,67.78
2018-09-25T21:05:45.009Z,68.27
2018-09-25T21:08:18.500Z,68.18
2018-09-25T21:10:51.804Z,68.22
2018-09-25T21:13:25.805Z,68.45
2018-09-25T21:15:59.039Z,68.33
2018-09-25T21:18:32.469Z,68.47
2018-09-25T21:21:05.909Z,68.27
2018-09-25T21:23:39.169Z,68.43
2018-09-25T21:26:12.483Z,68.20
2018-09-25T21:28:45.931Z,68.84
2018-09-25T21:31:21.146Z,68.64
2018-09-25T21:33:54.459Z,68.72
2018-09-25T21:36:27.616Z,68.57
2018-09-25T21:39:00.972Z,68.54
2018-09-25T21:41:34.232Z,68.55
2018-09-25T21:44:07.635Z,68.70
2018-09-25T21:46:40.916Z,68.63
2018-09-25T21:49:14.512Z,68.96
2018-09-25T21:51:47.860Z,68.60
2018-09-25T21:54:21.051Z,68.33
2018-09-25T21:56:54.519Z,68.08
2018-09-25T21:59:27.933Z,68.69
2018-09-25T22:02:01.198Z,68.69
2018-09-25T22:04:34.943Z,68.52
2018-09-25T22:07:08.211Z,68.58
2018-09-25T22:09:41.487Z,68.61
2018-09-25T22:12:14.888Z,68.88
2018-09-25T22:14:48.164Z,68.66
2018-09-25T22:17:21.474Z,68.92
2018-09-25T22:19:54.871Z,68.55
2018-09-25T22:22:28.166Z,68.99
2018-09-25T22:25:01.444Z,68.81
2018-09-25T22:27:34.715Z,68.81
2018-09-25T22:30:08.135Z,68.88
2018-09-25T22:32:41.615Z,68.73
2018-09-25T22:35:15.003Z,68.83
2018-09-25T22:37:48.259Z,68.82
2018-09-25T22:40:21.535Z,68.81
2018-09-25T22:42:54.815Z,69.37
2018-09-25T22:45:28.240Z,69.74
2018-09-25T22:48:01.807Z,69.13
2018-09-25T22:50:35.079Z,69.67
2018-09-25T22:53:08.369Z,69.34
2018-09-25T22:55:41.647Z,69.08
2018-09-25T22:58:14.904Z,69.13
2018-09-25T23:00:48.262Z,68.98
2018-09-25T23:03:21.534Z,68.82
2018-09-25T23:05:54.929Z,69.15
2018-09-25T23:08:28.257Z,69.32
2018-09-25T23:11:01.660Z,69.17
2018-09-25T23:13:35.052Z,69.19
2018-09-25T23:16:08.323Z,69.79
2018-09-25T23:18:41.711Z,69.56
2018-09-25T23:21:14.999Z,70.03
2018-09-25T23:23:48.295Z,69.59
2018-09-25T23:26:21.691Z,69.93
2018-09-25T23:28:55.055Z,69.44
2018-09-25T23:31:28.468Z,69.71
2018-09-25T23:34:01.763Z,69.67
2018-09-25T23:36:35.355Z,69.95
2018-09-25T23:39:09.421Z,70.00
2018-09-25T23:41:39.899Z,69.45
2018-09-25T23:44:17.175Z,69.70
2018-09-25T23:46:49.665Z,69.53
2018-09-25T23:49:25.866Z,69.24
2018-09-25T23:51:58.245Z,69.42
2018-09-25T23:54:45.469Z,69.61
2018-09-25T23:57:18.707Z,69.41
2018-09-25T23:59:56.371Z,69.71
